• Join FlightAware (Why Join?)
  • Login
  • US Flag 
06:47PM EDT


 

Airport Tracker/Info


-or-


 

Live Flight TrackerFlight Track Log ✈ AAL1774 ✈ 29-Jul-2013 ✈ KMIA - KLAX

Flight Track Log - Related Links

Times and Time Zones

All times are in EDT time to prevent confusion due to time zone crossing. See the AAL1774 flight status page for this flight to view local times or setup timezone preferences in your user account.

Time Position Orientation Groundspeed Altitude Reporting Facility
EDT Latitude Longitude Course Direction KTS MPH feet Rate Location/Type
01:38PM 25.7983 -80.2653 318° Northwest 175 201 1,100  Level Miami Center
01:38PM 25.8058 -80.2125 81° East 227 261 2,700 2,220 Climbing Miami Center
01:39PM 25.8406 -80.1533 57° Northeast 255 293 5,400 1,980 Climbing Miami Center
01:40PM 26.0275 -80.5644 310° West  Level FlightAware Approximate
01:41PM 26.1097 -80.6596 318° Northwest  Level FlightAware Approximate
01:41PM 25.9236 -80.1742 347° North 277 319 7,000  Level Miami Center
01:42PM 26.1981 -80.7481 318° Northwest  Level FlightAware Approximate
01:42PM 26.0003 -80.2017 342° North 277 319 8,000  Level Miami Center
01:43PM 26.2866 -80.8366 318° Northwest  Level FlightAware Approximate
01:43PM 26.0958 -80.2322 344° North 299 344 10,900  Level Miami Center
01:44PM 26.1847 -80.2739 337° Northwest 324 373 12,500 1,980 Climbing Miami Center
01:45PM 26.2686 -80.3481 322° Northwest 365 420 14,900 2,280 Climbing Miami Center
01:46PM 26.3269 -80.4333 307° West 383 441 17,100 2,100 Climbing Miami Center
01:47PM 26.3675 -80.5619 289° West 383 441 19,100 1,860 Climbing Miami Center
01:48PM 26.4236 -80.6611 302° West 410 472 20,900 1,800 Climbing Miami Center
01:49PM 26.4933 -80.7864 302° West 425 489 22,700 1,740 Climbing Miami Center
01:50PM 26.5569 -80.9022 302° West 438 504 24,400 1,500 Climbing Miami Center
01:51PM 26.6225 -81.0231 301° West 444 511 25,800 1,380 Climbing Miami Center
01:52PM 26.6608 -81.1431 290° West 451 519 27,200 1,380 Climbing Miami Center
01:53PM 26.7047 -81.2794 290° West 464 534 28,600 1,620 Climbing Miami Center
01:54PM 26.7542 -81.4322 290° West 471 542 30,500 1,860 Climbing Miami Center
01:55PM 26.8000 -81.5667 291° West 471 542 32,400 1,680 Climbing Miami Center
01:56PM 26.8378 -81.6892 289° West 466 536 33,900 1,380 Climbing Miami Center
01:57PM 26.8792 -81.8261 289° West 466 536 35,200 1,140 Climbing Miami Center
01:58PM 26.9206 -81.9581 289° West 456 525 36,200 900 Climbing Miami Center
01:59PM 26.9636 -82.0928 290° West 456 525 37,100 840 Climbing Miami Center
02:00PM 27.0028 -82.2203 289° West 456 525 37,900 420 Climbing Miami Center
02:01PM 27.0478 -82.3578 290° West 456 525 38,000  Climbing Miami Center
02:02PM 27.0906 -82.4925 290° West 456 525 38,000  Level Miami Center
02:03PM 27.1314 -82.6250 289° West 451 519 38,000  Level Miami Center
02:04PM 27.1739 -82.7603 289° West 451 519 38,000  Level Miami Center
02:05PM 27.2161 -82.8953 289° West 451 519 38,000  Level Miami Center
02:06PM 27.2544 -83.0306 288° West 451 519 38,000  Level Miami Center
02:07PM 27.2964 -83.1681 289° West 451 519 38,000  Level Miami Center
02:08PM 27.3322 -83.2986 287° West 451 519 38,000  Level Miami Center
02:09PM 27.3764 -83.4342 290° West 451 519 38,000  Level Miami Center
02:10PM 27.4119 -83.5647 287° West 451 519 38,000  Level Miami Center
02:11PM 27.4536 -83.6981 289° West 451 519 38,000  Level Miami Center
02:12PM 27.4933 -83.8314 289° West 451 519 38,000  Level Miami Center
02:13PM 27.5300 -83.9717 286° West 451 519 38,000  Level Miami Center
02:14PM 27.5692 -84.1075 288° West 451 519 38,000  Level Miami Center
02:15PM 27.6125 -84.2436 290° West 456 525 38,000  Level Miami Center
02:16PM 27.6469 -84.3792 286° West 456 525 38,000  Level Miami Center
02:17PM 27.7072 -84.5567 291° West 462 532 38,000  Level Jacksonville Center
02:18PM 27.7450 -84.6933 287° West 462 532 38,000  Level Jacksonville Center
02:19PM 27.7886 -84.8489 288° West 459 528 38,000  Level Jacksonville Center
02:20PM 27.8283 -84.9833 289° West 464 534 38,000  Level Jacksonville Center
02:21PM 27.8678 -85.1250 288° West 464 534 38,000  Level Jacksonville Center
02:22PM 27.9092 -85.2619 289° West 464 534 38,000  Level Jacksonville Center
02:23PM 27.9481 -85.4039 287° West 464 534 38,000  Level Jacksonville Center
02:24PM 27.9892 -85.5436 288° West 470 541 38,000  Level Jacksonville Center
02:25PM 28.0258 -85.6761 287° West 459 528 38,000  Level Jacksonville Center
02:26PM 28.0644 -85.8183 287° West 459 528 38,000  Level Jacksonville Center
02:27PM 28.1033 -85.9489 289° West 459 528 38,000  Level Jacksonville Center
02:28PM 28.1417 -86.0889 287° West 459 528 38,000  Level Jacksonville Center
02:29PM 28.1778 -86.2242 287° West 466 536 38,000  Level Jacksonville Center
02:30PM 28.2158 -86.3597 288° West 457 526 38,000  Level Jacksonville Center
02:31PM 28.2517 -86.4975 286° West 463 533 38,000  Level Jacksonville Center
02:32PM 28.2917 -86.6381 288° West 462 532 38,000  Level Jacksonville Center
02:33PM 28.3292 -86.7739 287° West 456 525 38,000  Level Jacksonville Center
02:34PM 28.3667 -86.9144 287° West 456 525 38,000  Level Jacksonville Center
02:35PM 28.4042 -87.0503 287° West 461 531 38,000  Level Jacksonville Center
02:36PM 28.4303 -87.1533 286° West 457 526 38,000  Level Houston Center
02:37PM 28.4669 -87.2900 287° West 455 524 38,000  Level Houston Center
02:38PM 28.5039 -87.4297 287° West 462 532 38,000  Level Houston Center
02:39PM 28.5478 -87.5975 287° West 462 532 38,000  Level Houston Center
02:40PM 28.5839 -87.7353 287° West 459 528 38,000  Level Houston Center
02:41PM 28.6203 -87.8750 287° West 462 532 38,000  Level Houston Center
02:42PM 28.6567 -88.0153 286° West 463 533 38,000  Level Houston Center
02:43PM 28.6903 -88.1519 286° West 463 533 38,000  Level Houston Center
02:44PM 28.7342 -88.3194 287° West 462 532 38,000  Level Houston Center
02:45PM 28.7708 -88.4608 287° West 466 536 38,000  Level Houston Center
02:46PM 28.8061 -88.6014 286° West 465 535 38,000  Level Houston Center
02:47PM 28.8422 -88.7425 286° West 463 533 38,000  Level Houston Center
02:48PM 28.8775 -88.8833 286° West 465 535 38,000  Level Houston Center
02:49PM 28.9136 -89.0253 286° West 466 536 38,000  Level Houston Center
02:50PM 28.9544 -89.1944 285° West 463 533 38,000  Level Houston Center
02:51PM 28.9903 -89.3364 286° West 464 534 38,000  Level Houston Center
02:53PM 29.0253 -89.4767 286° West 460 529 38,000  Level Houston Center
02:54PM 29.0592 -89.6194 285° West 465 535 38,000  Level Houston Center
02:55PM 29.0947 -89.7633 286° West 469 540 38,000  Level Houston Center
02:56PM 29.1286 -89.9047 285° West 462 532 38,000  Level Houston Center
02:57PM 29.1625 -90.0453 285° West 458 527 38,000  Level Houston Center
02:58PM 29.1961 -90.2206 282° West 468 539 38,000  Level Houston Center
02:59PM 29.2206 -90.3672 281° West 468 539 38,000  Level Houston Center
03:00PM 29.2450 -90.5133 281° West 467 537 38,000  Level Houston Center
03:01PM 29.2686 -90.6589 281° West 467 537 38,000  Level Houston Center
03:02PM 29.2917 -90.8047 280° West 465 535 38,000  Level Houston Center
03:03PM 29.3175 -90.9525 281° West 470 541 38,000  Level Houston Center
03:04PM 29.3456 -91.1272 280° West 466 536 38,000  Level Houston Center
03:05PM 29.3697 -91.2733 281° West 466 536 38,000  Level Houston Center
03:06PM 29.3928 -91.4208 280° West 467 537 38,000  Level Houston Center
03:07PM 29.4167 -91.5669 281° West 468 539 38,000  Level Houston Center
03:08PM 29.4414 -91.7278 280° West 470 541 38,000  Level Houston Center
03:09PM 29.4636 -91.8636 281° West 473 544 38,000  Level Houston Center
03:10PM 29.4853 -92.0117 280° West 472 543 38,000  Level Houston Center
03:11PM 29.5128 -92.1883 280° West 470 541 38,000  Level Houston Center
03:12PM 29.5353 -92.3367 280° West 471 542 38,000  Level Houston Center
03:13PM 29.5578 -92.4844 280° West 471 542 38,000  Level Houston Center
03:14PM 29.5803 -92.6325 280° West 471 542 38,000  Level Houston Center
03:15PM 29.6025 -92.7800 280° West 471 542 38,000  Level Houston Center
03:16PM 29.6244 -92.9294 280° West 473 544 38,000  Level Houston Center
03:17PM 29.6514 -93.1083 280° West 472 543 38,000  Level Houston Center
03:18PM 29.6722 -93.2581 279° West 473 544 38,000  Level Houston Center
03:19PM 29.6944 -93.4078 280° West 473 544 38,000  Level Houston Center
03:20PM 29.7156 -93.5553 279° West 469 540 38,000  Level Houston Center
03:21PM 29.7361 -93.7031 279° West 467 537 38,000  Level Houston Center
03:22PM 29.7578 -93.8511 280° West 467 537 38,000  Level Houston Center
03:24PM 29.7783 -94.0006 279° West 471 542 38,000  Level Houston Center
03:25PM 29.8028 -94.1736 279° West 471 542 38,000  Level Houston Center
03:26PM 29.8242 -94.3222 279° West 471 542 38,000  Level Houston Center
03:27PM 29.8447 -94.4706 279° West 472 543 38,000  Level Houston Center
03:28PM 29.8647 -94.6208 279° West 475 547 38,000  Level Houston Center
03:29PM 29.8847 -94.7706 279° West 476 548 38,000  Level Houston Center
03:30PM 29.9092 -94.9497 279° West 477 549 38,000  Level Houston Center
03:31PM 29.9286 -95.0992 279° West 478 550 38,000  Level Houston Center
03:32PM 29.9475 -95.2489 278° West 478 550 38,000  Level Houston Center
03:33PM 29.9669 -95.3983 279° West 478 550 38,000  Level Houston Center
03:34PM 29.9936 -95.5758 280° West 474 545 38,000  Level Houston Center
03:35PM 30.0167 -95.7239 280° West 473 544 38,000  Level Houston Center
03:36PM 30.0394 -95.8717 280° West 471 542 38,000  Level Houston Center
03:37PM 30.0650 -96.0372 280° West 476 548 38,000  Level Houston Center
03:38PM 30.0881 -96.1853 280° West 473 544 38,000  Level Houston Center
03:39PM 30.1106 -96.3333 280° West 471 542 38,000  Level Houston Center
03:40PM 30.1378 -96.4894 281° West 472 543 38,000  Level Houston Center
03:41PM 30.1694 -96.6375 284° West 470 541 38,000  Level Houston Center
03:42PM 30.2000 -96.7856 283° West 469 540 38,000  Level Houston Center
03:43PM 30.2317 -96.9339 284° West 468 539 38,000  Level Houston Center
03:44PM 30.2675 -97.1069 284° West 467 537 38,000  Level Houston Center
03:45PM 30.2978 -97.2575 283° West 470 541 38,000  Level Houston Center
03:46PM 30.3294 -97.4078 284° West 473 544 38,000  Level Houston Center
03:47PM 30.3600 -97.5569 283° West 471 542 38,000  Level Houston Center
03:48PM 30.3900 -97.7061 283° West 469 540 38,000  Level Houston Center
03:49PM 30.4203 -97.8567 283° West 472 543 38,000  Level Houston Center
03:50PM 30.4500 -98.0031 283° West 464 534 38,000  Level Houston Center
03:51PM 30.4794 -98.1514 283° West 467 537 38,000  Level Houston Center
03:53PM 30.5128 -98.3236 283° West 464 534 38,000  Level Houston Center
03:54PM 30.5422 -98.4700 283° West 461 531 38,000  Level Houston Center
03:55PM 30.5700 -98.6158 283° West 459 528 38,000  Level Houston Center
03:56PM 30.5994 -98.7625 283° West 462 532 38,000  Level Houston Center
03:57PM 30.6269 -98.9094 282° West 460 529 38,000  Level Houston Center
03:58PM 30.6556 -99.0561 283° West 462 532 38,000  Level Houston Center
03:59PM 30.6856 -99.2106 283° West 459 528 38,000  Level Houston Center
04:00PM 30.7139 -99.3558 283° West 462 532 38,000  Level Houston Center
04:01PM 30.7406 -99.5003 282° West 460 529 38,000  Level Houston Center
04:02PM 30.7686 -99.6453 283° West 462 532 38,000  Level Houston Center
04:03PM 30.7983 -99.8164 281° West 469 540 38,000  Level Houston Center
04:04PM 30.8250 -99.9614 282° West 473 544 38,000  Level Houston Center
04:05PM 30.8503 -100.1047 282° West 454 522 38,000  Level Houston Center
04:06PM 30.8769 -100.2492 282° West 459 528 38,000  Level Houston Center
04:07PM 30.9042 -100.3947 282° West 458 527 38,000  Level Houston Center
04:08PM 30.9358 -100.5711 282° West 460 529 38,000  Level Houston Center
04:09PM 30.9617 -100.7172 282° West 468 539 38,000  Level Houston Center
04:10PM 30.9881 -100.8589 282° West 455 524 38,000  Level Houston Center
04:11PM 31.0131 -101.0061 281° West 463 533 38,000  Level Houston Center
04:12PM 31.0467 -101.1442 286° West 452 520 38,000  Level Houston Center
04:13PM 31.1044 -101.2997 293° West 452 520 38,000  Level Houston Center
04:14PM 31.1542 -101.4347 293° West 454 522 38,000  Level Houston Center
04:15PM 31.2072 -101.5706 295° West 458 527 38,000  Level Houston Center
04:16PM 31.2536 -101.7081 292° West 454 522 38,000  Level Houston Center
04:17PM 31.2994 -101.8767 288° West 450 518 38,000  Level Houston Center
04:18PM 31.3475 -102.0117 293° West 453 521 38,000  Level Houston Center
04:19PM 31.3800 -102.1036 293° West 463 533 38,000  Level Albuquerque Center
04:20PM 31.4267 -102.2414 292° West 457 526 38,000  Level Albuquerque Center
04:21PM 31.4722 -102.3808 291° West 457 526 38,000  Level Albuquerque Center
04:22PM 31.5239 -102.5342 292° West 463 533 38,000  Level Albuquerque Center
04:23PM 31.5489 -102.6814 281° West 465 535 38,000  Level Albuquerque Center
04:24PM 31.5606 -102.8289 275° West 461 531 38,000  Level Albuquerque Center
04:25PM 31.5725 -102.9769 275° West 459 528 38,000  Level Albuquerque Center
04:26PM 31.5872 -103.1547 276° West 459 528 38,000  Level Albuquerque Center
04:27PM 31.5994 -103.3031 276° West 459 528 38,000 720 Level Albuquerque Center
04:28PM 31.6119 -103.4503 276° West 457 526 39,500 960 Climbing Albuquerque Center
04:29PM 31.6239 -103.5867 276° West 448 516 40,000 240 Climbing Albuquerque Center
04:30PM 31.6378 -103.7292 277° West 442 509 40,000  Level Albuquerque Center
04:31PM 31.6517 -103.8717 277° West 443 510 40,000  Level Albuquerque Center
04:32PM 31.6672 -104.0456 276° West 447 514 40,000  Level Albuquerque Center
04:33PM 31.6764 -104.1894 274° West 447 514 40,000  Level Albuquerque Center
04:34PM 31.6861 -104.3347 275° West 448 516 40,000  Level Albuquerque Center
04:35PM 31.6986 -104.4794 276° West 449 517 40,000  Level Albuquerque Center
04:37PM 31.7261 -104.6231 283° West 455 524 40,000  Level Albuquerque Center
04:38PM 31.7675 -104.7589 290° West 448 516 40,000  Level Albuquerque Center
04:39PM 31.8186 -104.9253 290° West 453 521 40,000  Level Albuquerque Center
04:40PM 31.8625 -105.0636 291° West 454 522 40,000  Level Albuquerque Center
04:41PM 31.9083 -105.1986 292° West 450 518 40,000  Level Albuquerque Center
04:42PM 31.9536 -105.3375 291° West 455 524 40,000  Level Albuquerque Center
04:43PM 31.9944 -105.4772 289° West 455 524 40,000  Level Albuquerque Center
04:44PM 32.0081 -105.6208 276° West 444 511 40,000  Level Albuquerque Center
04:45PM 32.0211 -105.7647 276° West 444 511 40,000  Level Albuquerque Center
04:46PM 32.0369 -105.9422 276° West 441 507 40,000  Level Albuquerque Center
04:47PM 32.0503 -106.0664 277° West 445 512 40,000  Level Albuquerque Center
04:48PM 32.0622 -106.2117 276° West 445 512 40,000  Level Albuquerque Center
04:49PM 32.0875 -106.3853 280° West 450 518 40,000  Level Albuquerque Center
04:50PM 32.1208 -106.5272 286° West 450 518 40,000  Level Albuquerque Center
04:51PM 32.1539 -106.6686 285° West 447 514 40,000  Level Albuquerque Center
04:52PM 32.1878 -106.8106 286° West 448 516 40,000  Level Albuquerque Center
04:53PM 32.2233 -106.9606 286° West 447 514 40,000  Level Albuquerque Center
04:54PM 32.2586 -107.1133 285° West 449 517 40,000  Level Albuquerque Center
04:55PM 32.2875 -107.2461 284° West 451 519 40,000  Level Albuquerque Center
04:56PM 32.3189 -107.3883 285° West 450 518 40,000  Level Albuquerque Center
04:57PM 32.3517 -107.5272 286° West 447 514 40,000  Level Albuquerque Center
04:58PM 32.3831 -107.6694 285° West 445 512 40,000  Level Albuquerque Center
04:59PM 32.4217 -107.8392 285° West 445 512 40,000  Level Albuquerque Center
05:00PM 32.4544 -107.9817 285° West 447 514 40,000  Level Albuquerque Center
05:01PM 32.4872 -108.1228 285° West 447 514 40,000  Level Albuquerque Center
05:02PM 32.5217 -108.2639 286° West 447 514 40,000  Level Albuquerque Center
05:03PM 32.5547 -108.4044 286° West 445 512 40,000  Level Albuquerque Center
05:04PM 32.5875 -108.5464 285° West 445 512 40,000  Level Albuquerque Center
05:05PM 32.6192 -108.6886 285° West 446 513 40,000  Level Albuquerque Center
05:06PM 32.6506 -108.8322 285° West 446 513 40,000  Level Albuquerque Center
05:07PM 32.6875 -109.0053 284° West 446 513 40,000  Level Albuquerque Center
05:08PM 32.7194 -109.1497 285° West 446 513 40,000  Level Albuquerque Center
05:09PM 32.7506 -109.2925 285° West 443 510 40,000  Level Albuquerque Center
05:10PM 32.7819 -109.4339 285° West 440 506 40,000  Level Albuquerque Center
05:11PM 32.8117 -109.5758 284° West 442 509 40,000  Level Albuquerque Center
05:12PM 32.8417 -109.7164 284° West 439 505 40,000  Level Albuquerque Center
05:14PM 32.8719 -109.8556 285° West 436 502 40,000  Level Albuquerque Center
05:15PM 32.9003 -109.9953 284° West 435 501 40,000  Level Albuquerque Center
05:16PM 32.9303 -110.1361 284° West 439 505 40,000  Level Albuquerque Center
05:17PM 32.9636 -110.3044 283° West 437 503 40,000  Level Albuquerque Center
05:18PM 32.9917 -110.4442 283° West 437 503 40,000  Level Albuquerque Center
05:19PM 33.0203 -110.5842 284° West 436 502 40,000  Level Albuquerque Center
05:20PM 33.0469 -110.7175 283° West 435 501 40,000  Level Albuquerque Center
05:21PM 33.0742 -110.8583 283° West 435 501 40,000  Level Albuquerque Center
05:22PM 33.1022 -110.9986 283° West 435 501 40,000  Level Albuquerque Center
05:23PM 33.1314 -111.1353 284° West 429 494 40,000  Level Albuquerque Center
05:24PM 33.1636 -111.3028 283° West 431 496 40,000  Level Albuquerque Center
05:25PM 33.1919 -111.4411 284° West 429 494 40,000  Level Albuquerque Center
05:26PM 33.2181 -111.5800 283° West 428 493 40,000  Level Albuquerque Center
05:27PM 33.2456 -111.7197 283° West 430 495 40,000  Level Albuquerque Center
05:28PM 33.2722 -111.8575 283° West 428 493 40,000  Level Albuquerque Center
05:29PM 33.3006 -111.9944 284° West 424 488 40,000  Level Albuquerque Center
05:30PM 33.3292 -112.1314 284° West 424 488 40,000  Level Albuquerque Center
05:31PM 33.3581 -112.2669 284° West 422 486 40,000  Level Albuquerque Center
05:32PM 33.3869 -112.4042 284° West 422 486 40,000  Level Albuquerque Center
05:33PM 33.4228 -112.5669 285° West 420 483 40,000  Level Albuquerque Center
05:34PM 33.4433 -112.6814 282° West 420 483 40,000  Level Albuquerque Center
05:35PM 33.4628 -112.8433 278° West 410 472 40,000  Level Albuquerque Center
05:36PM 33.5078 -112.9744 292° West 424 488 40,000  Level Albuquerque Center
05:37PM 33.5544 -113.1047 293° West 425 489 40,000  Level Albuquerque Center
05:38PM 33.5997 -113.2347 293° West 425 489 40,000  Level Albuquerque Center
05:39PM 33.6456 -113.3639 293° West 427 491 40,000  Level Albuquerque Center
05:40PM 33.6917 -113.4958 293° West 428 493 40,000  Level Albuquerque Center
05:41PM 33.7353 -113.6258 292° West 425 489 40,000  Level Albuquerque Center
05:42PM 33.7881 -113.7811 292° West 422 486 40,000  Level Albuquerque Center
05:43PM 33.8311 -113.9136 291° West 423 487 40,000  Level Albuquerque Center
05:44PM 33.8592 -114.0492 284° West 423 487 40,000  Level Albuquerque Center
05:45PM 33.8744 -114.1606 279° West 410 472 40,000  Level Los Angeles Center
05:46PM 33.8956 -114.2947 281° West 410 472 40,000  Level Los Angeles Center
05:47PM 33.9119 -114.4022 280° West 410 472 40,000  Level Los Angeles Center
05:48PM 33.9364 -114.5631 280° West 408 470 40,000  Level Los Angeles Center
05:49PM 33.9608 -114.7228 280° West 407 468 40,000  Level Los Angeles Center
05:50PM 33.9806 -114.8578 280° West 409 471 40,000  Level Los Angeles Center
05:51PM 33.9992 -114.9925 279° West 409 471 40,000  Level Los Angeles Center
05:52PM 34.0189 -115.1281 280° West 412 474 40,000  Level Los Angeles Center
05:53PM 34.0406 -115.2631 281° West 413 475 40,000  Level Los Angeles Center
05:54PM 34.0653 -115.4242 281° West 410 472 40,000  Level Los Angeles Center
05:56PM 34.0858 -115.5589 280° West 412 474 40,000 -300 Level Los Angeles Center
05:57PM 34.1083 -115.7214 280° West 413 475 39,400 -1,440 Descending Los Angeles Center
05:58PM 34.1022 -115.8539 267° West 403 464 37,100 -2,460 Descending Los Angeles Center
05:59PM 34.0842 -115.9864 261° West 401 461 34,300 -3,300 Descending Los Angeles Center
06:00PM 34.0664 -116.1575 263° West 426 490 30,300 -3,240 Descending Los Angeles Center
06:01PM 34.0494 -116.3022 262° West 436 502 27,700 -2,460 Descending Los Angeles Center
06:02PM 34.0339 -116.4425 262° West 425 489 25,300 -2,400 Descending Los Angeles Center
06:03PM 34.0178 -116.5781 262° West 414 476 22,800 -2,460 Descending Los Angeles Center
06:04PM 34.0025 -116.7111 262° West 404 465 20,300 -2,340 Descending Los Angeles Center
06:05PM 33.9872 -116.8419 262° West 397 457 18,000 -1,800 Descending Los Angeles Center
06:06PM 33.9667 -116.9667 259° West 375 432 17,000 -540 Descending Southern California TRACON
06:07PM 33.9500 -117.0833 260° West 356 410 17,000 -600 Level Southern California TRACON
06:08PM 33.9500 -117.2000 270° West 344 396 15,900 -1,080 Descending Southern California TRACON
06:09PM 33.9333 -117.3167 260° West 347 399 14,900 -1,440 Descending Southern California TRACON
06:10PM 33.9500 -117.4333 280° West 340 391 13,100 -1,800 Descending Southern California TRACON
06:11PM 33.9833 -117.5333 292° West 321 369 11,300 -1,440 Descending Southern California TRACON
06:12PM 34.0167 -117.6333 292° West 335 386 10,300 -900 Descending Southern California TRACON
06:13PM 34.0000 -117.7167 256° West 282 325 9,500 -1,020 Descending Southern California TRACON
06:14PM 34.0000 -117.8167 270° West 283 326 8,300 -900 Descending Southern California TRACON
06:15PM 33.9833 -117.9167 259° West 287 330 7,700 -1,080 Descending Southern California TRACON
06:16PM 33.9833 -118.0000 270° West 273 314 6,200 -1,440 Descending Southern California TRACON
06:17PM 33.9667 -118.0833 256° West 239 275 4,900 -1,260 Descending Southern California TRACON
06:18PM 33.9667 -118.1667 270° West 230 265 3,700 -1,140 Descending Southern California TRACON
06:18PM 33.9564 -118.1986 249° West 231 266 3,100 -1,020 Descending Los Angeles Center
06:19PM 33.9497 -118.2653 263° West 211 243 2,100 -1,020 Descending Los Angeles Center
06:20PM 33.9431 -118.3283 263° West 178 205 1,100 -840 Descending Los Angeles Center
06:22PM 33.9397 -118.3719 265° West 151 174 400 -480 Descending Los Angeles Center
06:23PM 33.9747 -118.4572 296° West 197 227 200 -240 Descending Los Angeles Center